| time (UTC) | temp F | wind direction | speed MPH | gust MPH | rain 1hr in | rain 24hr in | rain mn in | humidity % | barometer mb |
| 20260506014022 | 51 | 0.0 | 0.0 | 0.00 | 0.00 | 0.00 | 42 | 1021.0 | |
| 20260506013017 | 51 | 0.0 | 0.0 | 0.00 | 0.00 | 0.00 | 42 | 1021.1 | |
| 20260506012031 | 52 | 0.0 | 0.0 | 0.00 | 0.00 | 0.00 | 41 | 1021.1 | |
| 20260506011046 | 53 | 0.0 | 0.0 | 0.00 | 0.00 | 0.00 | 41 | 1021.3 | |
| 20260506010020 | 53 | 0.0 | 0.0 | 0.00 | 0.00 | 0.00 | 41 | 1021.3 | |
| 20260506005016 | 53 | 0.0 | 0.0 | 0.00 | 0.00 | 0.00 | 40 | 1021.4 | |
| 20260506004029 | 54 | 0.0 | 0.0 | 0.00 | 0.00 | 0.00 | 39 | 1021.5 | |
| 20260506003024 | 55 | 0.0 | 0.0 | 0.00 | 0.00 | 0.00 | 39 | 1021.5 | |
| 20260506002039 | 56 | 0.0 | 0.0 | 0.00 | 0.00 | 0.00 | 36 | 1021.8 | |
| 20260506001032 | 58 | 0.0 | 0.0 | 0.00 | 0.00 | 0.00 | 36 | 1021.8 | |
| 20260506000026 | 56 | 0.0 | 0.0 | 0.00 | 0.00 | 0.00 | 37 | 1021.9 | |
| 20260505235042 | 56 | 0.0 | 0.0 | 0.00 | 0.00 | 0.00 | 39 | 1022.0 | |
| 20260505234017 | 54 | 0.0 | 0.0 | 0.00 | 0.00 | 0.00 | 39 | 1022.1 | |
| 20260505233030 | 57 | 0.0 | 0.0 | 0.00 | 0.00 | 0.00 | 37 | 1022.2 | |
| 20260505232024 | 57 | 0.0 | 0.0 | 0.00 | 0.00 | 0.00 | 37 | 1022.3 | |
| 20260505231020 | 57 | 0.0 | 0.0 | 0.00 | 0.00 | 0.00 | 36 | 1022.5 | |
| 20260505230032 | 57 | 0.0 | 0.0 | 0.00 | 0.00 | 0.00 | 36 | 1022.6 | |
| 20260505225053 | 56 | 0.0 | 0.0 | 0.00 | 0.00 | 0.00 | 38 | 1022.7 | |
| 20260505224028 | 57 | 0.0 | 0.0 | 0.00 | 0.00 | 0.00 | 38 | 1022.8 | |
| 20260505223023 | 57 | 0.0 | 0.0 | 0.00 | 0.00 | 0.00 | 37 | 1022.9 | |
| 20260505222018 | 56 | 0.0 | 0.0 | 0.00 | 0.00 | 0.00 | 37 | 1023.1 | |
| 20260505221031 | 56 | 0.0 | 0.0 | 0.00 | 0.00 | 0.00 | 39 | 1023.3 | |
| 20260505220025 | 56 | 0.0 | 0.0 | 0.00 | 0.00 | 0.00 | 39 | 1023.3 | |
| 20260505215021 | 55 | 0.0 | 0.0 | 0.00 | 0.00 | 0.00 | 39 | 1023.4 | |
| 20260505214015 | 57 | 0.0 | 0.0 | 0.00 | 0.00 | 0.00 | 37 | 1023.5 | |
| 20260505213028 | 56 | 0.0 | 0.0 | 0.00 | 0.00 | 0.00 | 39 | 1023.6 | |
| 20260505212044 | 54 | 0.0 | 0.0 | 0.00 | 0.00 | 0.00 | 40 | 1023.8 | |
| 20260505211018 | 56 | 0.0 | 0.0 | 0.00 | 0.00 | 0.00 | 39 | 1023.8 | |
| 20260505210031 | 55 | 45 | 0.0 | 1.0 | 0.00 | 0.00 | 0.00 | 40 | 1024.0 |
| 20260505205021 | 55 | 0.0 | 0.0 | 0.00 | 0.00 | 0.00 | 40 | 1024.2 | |
| 20260505204015 | 56 | 0.0 | 0.0 | 0.00 | 0.00 | 0.00 | 40 | 1024.2 | |
| 20260505203043 | 55 | 0.0 | 0.0 | 0.00 | 0.00 | 0.00 | 41 | 1024.3 | |
| 20260505202018 | 54 | 0.0 | 0.0 | 0.00 | 0.00 | 0.00 | 43 | 1024.5 | |
| 20260505201039 | 53 | 0.0 | 0.0 | 0.00 | 0.00 | 0.00 | 42 | 1024.5 | |
| 20260505200032 | 53 | 0.0 | 0.0 | 0.00 | 0.00 | 0.00 | 43 | 1024.7 | |
| 20260505195027 | 54 | 0.0 | 0.0 | 0.00 | 0.00 | 0.00 | 43 | 1024.7 | |
| 20260505194042 | 54 | 0.0 | 0.0 | 0.00 | 0.00 | 0.00 | 43 | 1024.7 | |
| 20260505193017 | 53 | 0.0 | 0.0 | 0.00 | 0.00 | 0.00 | 44 | 1024.7 | |
| 20260505192030 | 54 | 0.0 | 0.0 | 0.00 | 0.00 | 0.00 | 43 | 1025.0 | |
| 20260505191025 | 52 | 0.0 | 0.0 | 0.00 | 0.00 | 0.00 | 44 | 1024.9 | |
| 20260505190020 | 52 | 0.0 | 0.0 | 0.00 | 0.00 | 0.00 | 45 | 1025.0 | |
| 20260505185021 | 52 | 0.0 | 0.0 | 0.00 | 0.00 | 0.00 | 45 | 1025.2 | |
| 20260505184016 | 51 | 0.0 | 0.0 | 0.00 | 0.00 | 0.00 | 46 | 1025.2 | |
| 20260505183023 | 51 | 0.0 | 0.0 | 0.00 | 0.00 | 0.00 | 47 | 1025.2 | |
| 20260505182018 | 51 | 0.0 | 0.0 | 0.00 | 0.00 | 0.00 | 47 | 1025.1 | |
| 20260505181039 | 51 | 0.0 | 0.0 | 0.00 | 0.00 | 0.00 | 48 | 1025.3 | |
| 20260505180032 | 50 | 0.0 | 0.0 | 0.00 | 0.00 | 0.00 | 48 | 1025.4 | |
| 20260505175026 | 49 | 0.0 | 0.0 | 0.00 | 0.00 | 0.00 | 49 | 1025.4 | |
| 20260505174022 | 47 | 0.0 | 0.0 | 0.00 | 0.00 | 0.00 | 51 | 1025.4 | |
| 20260505173017 | 50 | 0.0 | 2.0 | 0.00 | 0.00 | 0.00 | 48 | 1025.5 | |
| 20260505172031 | 49 | 0.0 | 0.0 | 0.00 | 0.00 | 0.00 | 49 | 1025.6 | |
| 20260505171025 | 49 | 0.0 | 0.0 | 0.00 | 0.00 | 0.00 | 49 | 1025.6 | |
| 20260505170025 | 47 | 0.0 | 0.0 | 0.00 | 0.00 | 0.00 | 50 | 1025.6 | |
| 20260505165033 | 48 | 0.0 | 0.0 | 0.00 | 0.00 | 0.00 | 50 | 1025.7 | |
| 20260505164028 | 47 | 0.0 | 0.0 | 0.00 | 0.00 | 0.00 | 51 | 1025.8 | |
| 20260505163043 | 45 | 0.0 | 0.0 | 0.00 | 0.00 | 0.00 | 53 | 1025.8 | |
| 20260505162018 | 46 | 0.0 | 0.0 | 0.00 | 0.00 | 0.00 | 52 | 1025.9 | |
| 20260505161054 | 45 | 0.0 | 0.0 | 0.00 | 0.00 | 0.00 | 53 | 1026.1 | |
| 20260505153033 | 44 | 0.0 | 0.0 | 0.00 | 0.00 | 0.00 | 55 | 1025.9 | |
| 20260505152029 | 44 | 0.0 | 0.0 | 0.00 | 0.00 | 0.00 | 54 | 1025.9 | |
| 20260505151046 | 47 | 0.0 | 0.0 | 0.00 | 0.00 | 0.00 | 50 | 1025.9 | |
| 20260505125036 | 27 | 0.0 | 0.0 | 0.00 | 0.00 | 0.00 | 92 | 1025.6 | |
| 20260505124029 | 27 | 0.0 | 0.0 | 0.00 | 0.00 | 0.00 | 92 | 1025.6 | |
| 20260505123024 | 27 | 0.0 | 0.0 | 0.00 | 0.00 | 0.00 | 91 | 1025.6 | |
| 20260505122039 | 27 | 0.0 | 0.0 | 0.00 | 0.00 | 0.00 | 92 | 1025.5 | |
| 20260505121052 | 27 | 0.0 | 0.0 | 0.00 | 0.00 | 0.00 | 92 | 1025.5 | |
| 20260505120026 | 28 | 0.0 | 0.0 | 0.00 | 0.00 | 0.00 | 92 | 1025.5 | |
| 20260505115102 | 27 | 0.0 | 0.0 | 0.00 | 0.00 | 0.00 | 91 | 1025.4 | |
| 20260505114016 | 28 | 0.0 | 0.0 | 0.00 | 0.00 | 0.00 | 91 | 1025.4 | |
| 20260505113029 | 28 | 0.0 | 0.0 | 0.00 | 0.00 | 0.00 | 90 | 1025.4 | |
| 20260505112024 | 28 | 0.0 | 0.0 | 0.00 | 0.00 | 0.00 | 90 | 1025.4 | |
| 20260505111019 | 29 | 0.0 | 0.0 | 0.00 | 0.00 | 0.00 | 90 | 1025.4 | |
| 20260505102019 | 29 | 0.0 | 0.0 | 0.00 | 0.00 | 0.00 | 93 | 1025.2 | |
| 20260505101020 | 28 | 0.0 | 0.0 | 0.00 | 0.00 | 0.00 | 93 | 1025.1 | |
| 20260505100015 | 28 | 0.0 | 0.0 | 0.00 | 0.00 | 0.00 | 93 | 1025.1 | |
| 20260505095028 | 28 | 0.0 | 0.0 | 0.00 | 0.00 | 0.00 | 93 | 1025.0 | |
| 20260505094023 | 28 | 0.0 | 0.0 | 0.00 | 0.00 | 0.00 | 92 | 1024.9 | |
| 20260505093038 | 28 | 0.0 | 0.0 | 0.00 | 0.00 | 0.00 | 92 | 1024.9 | |
| 20260505092032 | 28 | 0.0 | 0.0 | 0.00 | 0.00 | 0.00 | 91 | 1024.9 | |
| 20260505091026 | 28 | 0.0 | 0.0 | 0.00 | 0.00 | 0.00 | 90 | 1024.7 | |
| 20260505090021 | 29 | 0.0 | 0.0 | 0.00 | 0.00 | 0.00 | 89 | 1024.7 | |
| 20260505085022 | 29 | 0.0 | 0.0 | 0.00 | 0.00 | 0.00 | 87 | 1024.6 | |
| 20260505084017 | 30 | 0.0 | 0.0 | 0.00 | 0.00 | 0.00 | 86 | 1024.5 | |
| 20260505083024 | 30 | 0.0 | 0.0 | 0.00 | 0.00 | 0.00 | 86 | 1024.5 | |
| 20260505082018 | 31 | 0.0 | 0.0 | 0.00 | 0.00 | 0.00 | 84 | 1024.5 | |
| 20260505081019 | 32 | 0.0 | 0.0 | 0.00 | 0.00 | 0.00 | 82 | 1024.5 | |
| 20260505080032 | 32 | 0.0 | 0.0 | 0.00 | 0.00 | 0.00 | 80 | 1024.2 | |
| 20260505075027 | 33 | 0.0 | 0.0 | 0.00 | 0.00 | 0.00 | 80 | 1024.3 | |
| 20260505074023 | 34 | 0.0 | 0.0 | 0.00 | 0.00 | 0.00 | 79 | 1024.3 | |
| 20260505073018 | 34 | 45 | 0.0 | 1.0 | 0.00 | 0.00 | 0.00 | 78 | 1024.2 |
| 20260505072031 | 34 | 0.0 | 0.0 | 0.00 | 0.00 | 0.00 | 78 | 1024.2 | |
| 20260505071026 | 34 | 0.0 | 0.0 | 0.00 | 0.00 | 0.00 | 77 | 1024.1 | |
| 20260505070020 | 34 | 0.0 | 0.0 | 0.00 | 0.00 | 0.00 | 77 | 1024.1 | |
| 20260505065015 | 35 | 0.0 | 0.0 | 0.00 | 0.00 | 0.00 | 76 | 1024.2 | |
| 20260505064028 | 35 | 0.0 | 0.0 | 0.00 | 0.00 | 0.00 | 76 | 1024.2 | |
| 20260505063023 | 35 | 0.0 | 0.0 | 0.00 | 0.00 | 0.00 | 75 | 1024.2 | |
| 20260505062018 | 36 | 0.0 | 0.0 | 0.00 | 0.00 | 0.00 | 72 | 1024.1 | |
| 20260505061031 | 37 | 0.0 | 0.0 | 0.00 | 0.00 | 0.00 | 71 | 1024.0 | |
| 20260505060026 | 37 | 0.0 | 0.0 | 0.00 | 0.00 | 0.00 | 70 | 1024.0 | |
| 20260505055020 | 38 | 0.0 | 0.0 | 0.00 | 0.00 | 0.00 | 69 | 1023.9 | |
| 20260505054053 | 38 | 0.0 | 0.0 | 0.00 | 0.00 | 0.00 | 68 | 1023.8 | |
| 20260505052023 | 39 | 0.0 | 0.0 | 0.00 | 0.00 | 0.00 | 66 | 1023.7 | |
| 20260505051018 | 39 | 0.0 | 0.0 | 0.00 | 0.00 | 0.00 | 66 | 1023.5 | |
| 20260505050111 | 39 | 0.0 | 0.0 | 0.00 | 0.00 | 0.00 | 66 | 1023.5 | |
| 20260505041051 | 42 | 0.0 | 0.0 | 0.00 | 0.00 | 0.00 | 61 | 1022.9 | |
| 20260505040025 | 43 | 0.0 | 0.0 | 0.00 | 0.00 | 0.00 | 60 | 1022.6 | |
| 20260505035020 | 43 | 0.0 | 0.0 | 0.00 | 0.00 | 0.00 | 59 | 1022.4 | |
| 20260505034034 | 44 | 0.0 | 0.0 | 0.00 | 0.00 | 0.00 | 58 | 1022.3 | |
| 20260505033028 | 44 | 0.0 | 0.0 | 0.00 | 0.00 | 0.00 | 57 | 1022.2 | |
| 20260505032024 | 45 | 0.0 | 0.0 | 0.00 | 0.00 | 0.00 | 56 | 1022.0 | |
| 20260505031018 | 46 | 45 | 0.0 | 1.0 | 0.00 | 0.00 | 0.00 | 55 | 1021.9 |
| 20260505030031 | 47 | 45 | 0.0 | 1.0 | 0.00 | 0.00 | 0.00 | 52 | 1021.7 |
| 20260505025021 | 48 | 0.0 | 0.0 | 0.00 | 0.00 | 0.00 | 48 | 1021.5 | |
| 20260505024036 | 49 | 45 | 0.0 | 1.0 | 0.00 | 0.00 | 0.00 | 47 | 1021.5 |
| 20260505023022 | 49 | 0.0 | 0.0 | 0.00 | 0.00 | 0.00 | 46 | 1021.5 | |
| 20260505022058 | 49 | 0.0 | 0.0 | 0.00 | 0.00 | 0.00 | 46 | 1021.3 | |
| 20260505021059 | 49 | 45 | 0.0 | 1.0 | 0.00 | 0.00 | 0.00 | 46 | 1021.3 |
| 20260505020031 | 50 | 45 | 0.0 | 1.0 | 0.00 | 0.00 | 0.00 | 45 | 1021.3 |
| 20260505015026 | 50 | 0.0 | 0.0 | 0.00 | 0.00 | 0.00 | 44 | 1021.3 |